Time;durP1;ratioP1;P1;durP2;ratioP2;P2;SDS_P1;SDS_P2;PMS_P1;PMS_P2;Temp;Humidity;BMP_temperature;BMP_pressure;BME280_temperature;BME280_humidity;BME280_pressure;Samples;Min_cycle;Max_cycle;Signal;HPM_P1;HPM_P2
2023/06/03 00:00:16;;;;;;;;;;;;;;;21.59;42.98;102212.38;5028418;28;20003;-71
2023/06/03 00:02:41;;;;;;;;;;;;;;;21.57;42.95;102211.66;5052470;28;19968;-71
2023/06/03 00:05:07;;;;;;;;;;;;;;;21.17;42.68;102145.31;5037608;28;19944;-71
2023/06/03 00:07:32;;;;;;;;;;;;;;;21.56;42.98;102218.09;5034451;28;19913;-71
2023/06/03 00:09:58;;;;;;;;;;;;;;;21.55;42.89;102219.94;5036116;28;20265;-71
2023/06/03 00:12:23;;;;;;;;;;;;;;;21.56;42.98;102224.34;5032008;28;19921;-71
2023/06/03 00:14:48;;;;;;;;;;;;;;;21.55;42.82;102222.66;5049994;28;19925;-70
2023/06/03 00:17:15;;;;;;;;;;;;;;;21.55;42.63;102225.34;5045360;28;19967;-70
2023/06/03 00:19:40;;;;;;;;;;;;;;;21.54;42.63;102225.53;5050698;28;19964;-71
2023/06/03 00:22:06;;;;;;;;;;;;;;;21.54;42.50;102226.38;5031252;28;19924;-71
2023/06/03 00:24:31;;;;;;;;;;;;;;;21.53;42.95;102213.81;5054800;28;19919;-71
2023/06/03 00:26:57;;;;;;;;;;;;;;;21.54;42.69;102222.81;5054047;28;19967;-70
2023/06/03 00:29:22;;;;;;;;;;;;;;;21.53;42.84;102224.66;5046861;28;19913;-71
2023/06/03 00:31:47;;;;;;;;;;;;;;;21.52;42.53;102231.06;5042787;28;19921;-71
2023/06/03 00:34:13;;;;;;;;;;;;;;;21.52;42.60;102222.09;5047785;28;20282;-71
2023/06/03 00:36:39;;;;;;;;;;;;;;;21.51;42.90;102223.97;5049693;28;20400;-71
2023/06/03 00:39:04;;;;;;;;;;;;;;;21.51;42.53;102225.81;5027546;28;19920;-71
2023/06/03 00:41:29;;;;;;;;;;;;;;;21.51;42.56;102228.53;5053252;28;19913;-69
2023/06/03 00:43:54;;;;;;;;;;;;;;;21.50;42.71;102219.56;5053714;28;19931;-70
2023/06/03 00:46:20;;;;;;;;;;;;;;;21.50;42.71;102224.13;5040407;28;19966;-70
2023/06/03 00:48:45;;;;;;;;;;;;;;;21.49;42.84;102223.25;5053637;28;19913;-70
2023/06/03 00:51:11;;;;;;;;;;;;;;;21.49;42.71;102222.41;5031167;28;19917;-70
2023/06/03 00:53:36;;;;;;;;;;;;;;;21.47;42.41;102211.75;5041371;28;19916;-70
2023/06/03 00:56:01;;;;;;;;;;;;;;;21.48;42.84;102215.28;5031005;28;20007;-70
2023/06/03 00:58:27;;;;;;;;;;;;;;;21.48;42.45;102220.72;5047576;28;19920;-70
2023/06/03 01:00:52;;;;;;;;;;;;;;;21.46;42.37;102218.16;5038800;28;19979;-70
2023/06/03 01:03:19;;;;;;;;;;;;;;;21.46;42.62;102215.47;5053977;28;20011;-70
2023/06/03 01:05:45;;;;;;;;;;;;;;;21.45;42.65;102216.44;5028401;28;19920;-70
2023/06/03 01:08:23;;;;;;;;;;;;;;;21.45;42.47;102221.84;5054082;28;19917;-70
2023/06/03 01:10:55;;;;;;;;;;;;;;;21.44;42.56;102215.59;5035927;28;20000;-70
2023/06/03 01:13:28;;;;;;;;;;;;;;;21.44;42.63;102222.88;5051189;28;19917;-70
2023/06/03 01:15:54;;;;;;;;;;;;;;;21.43;42.29;102221.16;5037106;28;19968;-70
2023/06/03 01:18:20;;;;;;;;;;;;;;;21.42;42.44;102214.06;5047237;28;19944;-70
2023/06/03 01:20:45;;;;;;;;;;;;;;;21.42;42.45;102217.63;5039664;28;19913;-70
2023/06/03 01:23:11;;;;;;;;;;;;;;;21.41;42.44;102215.06;5035731;28;19939;-70
2023/06/03 01:25:41;;;;;;;;;;;;;;;21.40;42.65;102216.91;5057671;28;19924;-70
2023/06/03 01:28:07;;;;;;;;;;;;;;;21.39;42.50;102217.91;5045185;28;20369;-70
2023/06/03 01:30:32;;;;;;;;;;;;;;;21.38;42.46;102221.63;5053345;28;19913;-70
2023/06/03 01:32:57;;;;;;;;;;;;;;;21.39;42.69;102223.31;5028736;28;19986;-71
2023/06/03 01:35:22;;;;;;;;;;;;;;;21.37;42.45;102217.22;5047183;28;19974;-71
2023/06/03 01:37:47;;;;;;;;;;;;;;;21.36;42.35;102218.22;5035924;28;19913;-71
2023/06/03 01:40:13;;;;;;;;;;;;;;;21.36;42.69;102220.91;5034050;28;19925;-71
2023/06/03 01:42:38;;;;;;;;;;;;;;;21.35;42.61;102223.78;5036143;28;19917;-71
2023/06/03 01:45:03;;;;;;;;;;;;;;;21.34;42.65;102220.25;5037996;28;19921;-70
2023/06/03 01:47:29;;;;;;;;;;;;;;;21.34;42.63;102222.09;5053141;28;19921;-71
2023/06/03 01:49:54;;;;;;;;;;;;;;;21.34;42.24;102227.50;5046796;28;19913;-71
2023/06/03 01:52:19;;;;;;;;;;;;;;;21.32;42.61;102222.22;5048032;28;20362;-70
2023/06/03 01:54:45;;;;;;;;;;;;;;;21.31;42.58;102227.78;5039597;28;19914;-71
2023/06/03 01:57:10;;;;;;;;;;;;;;;21.31;42.54;102225.06;5046037;28;19953;-70
2023/06/03 01:59:35;;;;;;;;;;;;;;;21.29;42.43;102236.03;5043020;28;19920;-70
2023/06/03 02:02:00;;;;;;;;;;;;;;;21.29;42.31;102225.22;5052202;28;19976;-70
2023/06/03 02:04:26;;;;;;;;;;;;;;;21.28;42.34;102231.66;5034717;28;20316;-70
2023/06/03 02:06:59;;;;;;;;;;;;;;;21.27;42.40;102226.38;5037573;28;19920;-70
2023/06/03 02:09:24;;;;;;;;;;;;;;;21.26;42.53;102239.03;5053335;28;19914;-70
2023/06/03 02:11:50;;;;;;;;;;;;;;;21.25;42.59;102231.94;5031476;28;19943;-70
2023/06/03 02:14:15;;;;;;;;;;;;;;;21.24;42.29;102235.66;5032926;28;20011;-70
2023/06/03 02:16:40;;;;;;;;;;;;;;;21.25;42.25;102231.09;5052479;28;20016;-70
2023/06/03 02:19:12;;;;;;;;;;;;;;;21.23;42.48;102248.31;5051245;28;19949;-70
2023/06/03 02:21:39;;;;;;;;;;;;;;;21.22;42.45;102237.66;5057741;28;19919;-70
2023/06/03 02:24:05;;;;;;;;;;;;;;;21.21;42.28;102225.13;5050323;28;19942;-70
2023/06/03 02:26:30;;;;;;;;;;;;;;;21.21;42.46;102242.22;5044556;28;19913;-71
2023/06/03 02:28:56;;;;;;;;;;;;;;;21.19;42.51;102227.13;5043322;28;19981;-71
2023/06/03 02:31:21;;;;;;;;;;;;;;;21.19;42.35;102229.81;5050648;28;19921;-71
2023/06/03 02:33:46;;;;;;;;;;;;;;;21.17;42.22;102224.59;5054444;28;19913;-71
2023/06/03 02:36:14;;;;;;;;;;;;;;;21.17;42.43;102227.28;5051014;28;20386;-71
2023/06/03 02:38:39;;;;;;;;;;;;;;;21.17;42.46;102231.84;5034836;28;19924;-71
2023/06/03 02:41:04;;;;;;;;;;;;;;;21.16;42.40;102232.84;5031546;28;19917;-71
2023/06/03 02:43:30;;;;;;;;;;;;;;;21.14;42.52;102226.72;5035668;28;20122;-71
2023/06/03 02:45:55;;;;;;;;;;;;;;;21.13;42.37;102230.44;5055464;28;20394;-71
2023/06/03 02:48:20;;;;;;;;;;;;;;;21.13;42.44;102234.00;5036711;28;19980;-70
2023/06/03 02:50:45;;;;;;;;;;;;;;;21.12;42.28;102231.47;5051726;28;19935;-70
2023/06/03 02:53:11;;;;;;;;;;;;;;;21.11;42.11;102235.13;5056879;28;20658;-71
2023/06/03 02:55:36;;;;;;;;;;;;;;;21.11;42.42;102232.44;5044741;28;19917;-70
2023/06/03 02:58:01;;;;;;;;;;;;;;;21.10;42.51;102237.00;5046420;28;19920;-71
2023/06/03 03:00:27;;;;;;;;;;;;;;;21.09;42.41;102232.59;5038402;28;19984;-71
2023/06/03 03:02:52;;;;;;;;;;;;;;;21.09;42.34;102242.56;5052084;28;20016;-71
2023/06/03 03:05:18;;;;;;;;;;;;;;;21.07;42.40;102234.63;5049824;28;19913;-71
2023/06/03 03:07:43;;;;;;;;;;;;;;;21.06;42.21;102235.59;5053923;28;19945;-71
2023/06/03 03:10:09;;;;;;;;;;;;;;;21.06;42.18;102238.31;5053486;28;19921;-72
2023/06/03 03:12:34;;;;;;;;;;;;;;;21.05;42.30;102235.75;5050286;28;19917;-70
2023/06/03 03:14:59;;;;;;;;;;;;;;;21.04;42.07;102239.47;5023324;28;19921;-70
2023/06/03 03:17:24;;;;;;;;;;;;;;;21.02;42.39;102242.31;5042336;28;19928;-72
2023/06/03 03:19:49;;;;;;;;;;;;;;;21.02;42.36;102247.72;5044315;28;19913;-71
2023/06/03 03:22:15;;;;;;;;;;;;;;;21.01;42.18;102240.63;5039535;28;19916;-70
2023/06/03 03:24:40;;;;;;;;;;;;;;;21.00;42.39;102235.38;5052296;28;20389;-71
2023/06/03 03:27:05;;;;;;;;;;;;;;;20.99;42.34;102239.94;5041117;28;19916;-70
2023/06/03 03:29:33;;;;;;;;;;;;;;;20.99;42.29;102236.38;5040797;28;19924;-71
2023/06/03 03:32:00;;;;;;;;;;;;;;;20.97;42.08;102241.91;5046838;28;19970;-71
2023/06/03 03:34:25;;;;;;;;;;;;;;;20.97;42.11;102241.91;5034637;28;19976;-71
2023/06/03 03:36:51;;;;;;;;;;;;;;;20.96;41.96;102245.63;5034529;28;19917;-71
2023/06/03 03:39:16;;;;;;;;;;;;;;;20.96;42.06;102251.03;5048333;28;19921;-71
2023/06/03 03:41:42;;;;;;;;;;;;;;;20.94;42.25;102242.19;5033201;28;20036;-71
2023/06/03 03:44:07;;;;;;;;;;;;;;;20.93;42.13;102243.22;5054602;28;20020;-70
2023/06/03 03:46:32;;;;;;;;;;;;;;;20.93;42.19;102249.47;5039376;28;19913;-70
2023/06/03 03:48:57;;;;;;;;;;;;;;;20.93;42.09;102249.47;5058003;28;19940;-71
2023/06/03 03:51:22;;;;;;;;;;;;;;;20.92;42.02;102249.63;5052511;28;19923;-71
2023/06/03 03:53:48;;;;;;;;;;;;;;;20.91;42.30;102250.63;5054801;28;19972;-70
2023/06/03 03:56:18;;;;;;;;;;;;;;;20.90;41.92;102247.09;5041046;28;19920;-71
2023/06/03 03:58:43;;;;;;;;;;;;;;;20.90;42.17;102246.22;5033333;28;19917;-71
2023/06/03 04:01:24;;;;;;;;;;;;;;;20.89;42.19;102242.66;5035125;28;19919;-70
2023/06/03 04:03:54;;;;;;;;;;;;;;;20.88;42.13;102246.38;5049933;28;19913;-71
2023/06/03 04:06:23;;;;;;;;;;;;;;;20.87;42.23;102247.38;5030434;28;20039;-70
2023/06/03 04:08:48;;;;;;;;;;;;;;;20.88;42.00;102250.94;5052224;28;19913;-70
2023/06/03 04:11:17;;;;;;;;;;;;;;;20.87;41.98;102246.53;5033992;28;19936;-71
2023/06/03 04:13:42;;;;;;;;;;;;;;;20.86;42.15;102247.53;5045902;28;19931;-71
2023/06/03 04:16:08;;;;;;;;;;;;;;;20.86;42.18;102250.25;5055689;28;19917;-71
2023/06/03 04:18:36;;;;;;;;;;;;;;;20.84;42.16;102250.38;5049919;28;19927;-71
2023/06/03 04:21:01;;;;;;;;;;;;;;;20.84;42.08;102255.78;5055345;28;19924;-70
2023/06/03 04:23:26;;;;;;;;;;;;;;;20.84;41.98;102250.38;5053143;28;19913;-71
2023/06/03 04:25:53;;;;;;;;;;;;;;;20.83;42.09;102243.25;5031734;28;19913;-70
2023/06/03 04:28:18;;;;;;;;;;;;;;;20.82;41.97;102246.97;5045229;28;19920;-70
2023/06/03 04:30:44;;;;;;;;;;;;;;;20.83;42.13;102261.34;5032735;28;19916;-70
2023/06/03 04:33:09;;;;;;;;;;;;;;;20.81;41.95;102255.22;5048268;28;19921;-70
2023/06/03 04:35:34;;;;;;;;;;;;;;;20.81;42.11;102255.22;5035140;28;19914;-71
2023/06/03 04:37:59;;;;;;;;;;;;;;;20.80;41.95;102259.78;5053707;28;19924;-72
2023/06/03 04:40:26;;;;;;;;;;;;;;;20.80;41.94;102253.50;5049254;28;19983;-70
2023/06/03 04:42:52;;;;;;;;;;;;;;;20.79;41.95;102252.66;5019009;28;19917;-70
2023/06/03 04:45:21;;;;;;;;;;;;;;;20.79;41.88;102252.66;5038002;28;20789;-70
2023/06/03 04:47:47;;;;;;;;;;;;;;;20.79;42.00;102254.53;5043452;28;19917;-70
2023/06/03 04:50:17;;;;;;;;;;;;;;;20.78;42.04;102255.53;5037599;28;19956;-71
2023/06/03 04:52:42;;;;;;;;;;;;;;;20.78;42.06;102253.69;5029881;28;19920;-71
2023/06/03 04:55:07;;;;;;;;;;;;;;;20.77;42.04;102253.81;5034420;28;19936;-71
2023/06/03 04:57:37;;;;;;;;;;;;;;;20.76;42.04;102255.66;5048640;28;19913;-71
2023/06/03 05:00:05;;;;;;;;;;;;;;;20.76;41.76;102254.81;5048609;28;19913;-71
2023/06/03 05:02:31;;;;;;;;;;;;;;;20.75;41.97;102253.97;5039412;28;20417;-71
2023/06/03 05:04:56;;;;;;;;;;;;;;;20.76;42.00;102262.91;5032631;28;20366;-71
2023/06/03 05:07:23;;;;;;;;;;;;;;;20.74;41.76;102260.38;5038676;28;19921;-71
2023/06/03 05:09:49;;;;;;;;;;;;;;;20.74;42.06;102263.09;5053789;28;19936;-71
2023/06/03 05:12:14;;;;;;;;;;;;;;;20.74;41.85;102265.78;5051350;28;19925;-71
2023/06/03 05:14:39;;;;;;;;;;;;;;;20.74;42.00;102259.53;5054891;28;19928;-70
2023/06/03 05:17:05;;;;;;;;;;;;;;;20.73;41.90;102264.09;5044928;28;20007;-70
2023/06/03 05:19:30;;;;;;;;;;;;;;;20.73;41.84;102261.38;5047245;28;19922;-70
2023/06/03 05:21:56;;;;;;;;;;;;;;;20.72;41.84;102267.78;5038973;28;19917;-70
2023/06/03 05:24:22;;;;;;;;;;;;;;;20.71;41.83;102264.22;5053988;28;20023;-70
2023/06/03 05:26:47;;;;;;;;;;;;;;;20.71;41.85;102266.91;5052219;28;20409;-71
2023/06/03 05:29:12;;;;;;;;;;;;;;;20.70;42.02;102262.53;5036161;28;19913;-71
2023/06/03 05:31:37;;;;;;;;;;;;;;;20.70;41.61;102264.38;5053405;28;19972;-70
2023/06/03 05:34:02;;;;;;;;;;;;;;;20.70;41.79;102272.47;5050878;28;19924;-70
2023/06/03 05:36:27;;;;;;;;;;;;;;;20.70;41.75;102277.88;5055092;28;19916;-70
2023/06/03 05:38:53;;;;;;;;;;;;;;;20.70;41.71;102280.59;5056311;28;19913;-71
2023/06/03 05:41:18;;;;;;;;;;;;;;;20.69;41.75;102277.03;5046304;28;19913;-71
2023/06/03 05:43:43;;;;;;;;;;;;;;;20.70;41.75;102277.88;5059666;28;19924;-71
2023/06/03 05:46:08;;;;;;;;;;;;;;;20.69;41.80;102276.19;5052916;28;19917;-70
2023/06/03 05:48:34;;;;;;;;;;;;;;;20.70;41.85;102275.19;5036883;28;19966;-71
2023/06/03 05:51:00;;;;;;;;;;;;;;;20.69;42.04;102277.03;5056743;28;19927;-70
2023/06/03 05:53:25;;;;;;;;;;;;;;;20.69;42.00;102274.34;5052623;28;19917;-70
2023/06/03 05:55:50;;;;;;;;;;;;;;;20.69;41.92;102274.34;5036516;28;19968;-70
2023/06/03 05:58:16;;;;;;;;;;;;;;;20.69;41.96;102278.91;5034998;28;19913;-70
2023/06/03 06:00:41;;;;;;;;;;;;;;;20.68;41.90;102278.00;5033714;28;19941;-70
2023/06/03 06:03:06;;;;;;;;;;;;;;;20.68;42.00;102274.47;5052112;28;19932;-70
2023/06/03 06:05:31;;;;;;;;;;;;;;;20.68;41.86;102282.56;5056233;28;19917;-70
2023/06/03 06:07:57;;;;;;;;;;;;;;;20.68;41.93;102283.41;5035020;28;19935;-70
2023/06/03 06:10:22;;;;;;;;;;;;;;;20.68;41.90;102279.88;5059666;28;19939;-71
2023/06/03 06:12:47;;;;;;;;;;;;;;;20.67;41.81;102281.72;5046383;28;19944;-71
2023/06/03 06:15:12;;;;;;;;;;;;;;;20.67;42.04;102281.72;5046193;28;19917;-70
2023/06/03 06:17:37;;;;;;;;;;;;;;;20.68;42.00;102283.41;5040163;28;19932;-70
2023/06/03 06:20:04;;;;;;;;;;;;;;;20.67;41.65;102287.13;5052570;28;19920;-70
2023/06/03 06:22:30;;;;;;;;;;;;;;;20.66;41.81;102282.72;5054298;28;19916;-70
2023/06/03 06:24:55;;;;;;;;;;;;;;;20.67;41.87;102287.13;5033970;28;19999;-71
2023/06/03 06:27:20;;;;;;;;;;;;;;;20.66;41.64;102288.13;5053220;28;20301;-71
2023/06/03 06:29:46;;;;;;;;;;;;;;;20.66;41.77;102282.72;5040155;28;19913;-71
2023/06/03 06:32:11;;;;;;;;;;;;;;;20.66;41.91;102290.84;5054053;28;19917;-71
2023/06/03 06:34:36;;;;;;;;;;;;;;;20.66;41.79;102290.00;5032951;28;19913;-70
2023/06/03 06:37:01;;;;;;;;;;;;;;;20.66;41.89;102282.72;5044536;28;19917;-71
2023/06/03 06:39:32;;;;;;;;;;;;;;;20.67;41.90;102292.53;5056426;28;20366;-71
2023/06/03 06:42:07;;;;;;;;;;;;;;;20.42;41.95;102242.66;5054198;28;19920;-70
2023/06/03 06:44:32;;;;;;;;;;;;;;;20.66;41.88;102285.44;5056509;28;19917;-71
2023/06/03 06:46:57;;;;;;;;;;;;;;;20.67;41.76;102281.72;5025618;28;19913;-70
2023/06/03 06:49:23;;;;;;;;;;;;;;;20.68;41.95;102282.56;5054330;28;19924;-70
2023/06/03 06:51:48;;;;;;;;;;;;;;;20.68;41.86;102282.56;5034892;28;19943;-70
2023/06/03 06:54:13;;;;;;;;;;;;;;;20.68;41.80;102288.81;5052273;28;19966;-70
2023/06/03 06:56:38;;;;;;;;;;;;;;;20.68;41.60;102285.28;5046744;28;20383;-71
2023/06/03 06:59:03;;;;;;;;;;;;;;;20.68;41.86;102285.28;5034753;28;19936;-71
2023/06/03 07:01:28;;;;;;;;;;;;;;;20.68;41.67;102291.53;5050185;28;20402;-71
2023/06/03 07:03:54;;;;;;;;;;;;;;;20.69;41.66;102281.59;5051840;28;19936;-71
2023/06/03 07:06:19;;;;;;;;;;;;;;;20.69;41.65;102284.31;5038393;28;19996;-71
2023/06/03 07:08:45;;;;;;;;;;;;;;;20.70;41.86;102286.00;5031264;28;19921;-71
2023/06/03 07:11:10;;;;;;;;;;;;;;;20.70;41.85;102288.69;5043769;28;19913;-71
2023/06/03 07:13:35;;;;;;;;;;;;;;;20.69;41.84;102289.72;5045345;28;19925;-71
2023/06/03 07:16:01;;;;;;;;;;;;;;;20.70;41.92;102283.28;5055185;28;19932;-71
2023/06/03 07:18:27;;;;;;;;;;;;;;;20.71;41.74;102287.69;5037090;28;20024;-71
2023/06/03 07:20:53;;;;;;;;;;;;;;;20.70;41.71;102284.16;5051383;28;19919;-70
2023/06/03 07:23:22;;;;;;;;;;;;;;;20.71;41.85;102287.69;5049611;28;19968;-70
2023/06/03 07:25:48;;;;;;;;;;;;;;;20.72;41.98;102289.38;5034330;28;19917;-71
2023/06/03 07:28:14;;;;;;;;;;;;;;;20.72;41.84;102286.69;5022333;28;19920;-71
2023/06/03 07:30:40;;;;;;;;;;;;;;;20.72;41.64;102281.28;5021432;28;19917;-71
2023/06/03 07:33:06;;;;;;;;;;;;;;;20.72;41.84;102287.53;5044848;28;19917;-71
2023/06/03 07:35:31;;;;;;;;;;;;;;;20.72;41.67;102292.94;5050072;28;19912;-71
2023/06/03 07:37:56;;;;;;;;;;;;;;;20.72;41.88;102282.13;5045586;28;19949;-71
2023/06/03 07:40:40;;;;;;;;;;;;;;;20.73;41.79;102291.13;5053613;28;19940;-71
2023/06/03 07:43:06;;;;;;;;;;;;;;;20.74;41.87;102284.69;5052023;28;19932;-71
2023/06/03 07:45:31;;;;;;;;;;;;;;;20.74;41.95;102297.38;5038062;28;19917;-71
2023/06/03 07:47:57;;;;;;;;;;;;;;;20.73;41.91;102288.41;5045826;28;20394;-71
2023/06/03 07:50:23;;;;;;;;;;;;;;;20.75;41.97;102293.66;5053177;28;19913;-71
2023/06/03 07:52:51;;;;;;;;;;;;;;;20.75;42.04;102290.97;5030861;28;19924;-70
2023/06/03 07:55:16;;;;;;;;;;;;;;;20.75;41.81;102289.09;5033679;28;19984;-71
2023/06/03 07:57:43;;;;;;;;;;;;;;;20.75;42.03;102289.09;5049985;28;19920;-70
2023/06/03 08:00:08;;;;;;;;;;;;;;;20.76;42.20;102290.81;5035637;28;19971;-70
2023/06/03 08:02:37;;;;;;;;;;;;;;;20.75;42.02;102294.50;5049686;28;19917;-70
2023/06/03 08:05:03;;;;;;;;;;;;;;;20.76;42.20;102295.34;5046196;28;19917;-70
2023/06/03 08:07:28;;;;;;;;;;;;;;;20.77;41.92;102300.59;5044944;28;19920;-71
2023/06/03 08:09:53;;;;;;;;;;;;;;;20.76;42.06;102290.81;5050387;28;19917;-71
2023/06/03 08:12:18;;;;;;;;;;;;;;;20.76;41.81;102298.91;5054123;28;19964;-70
2023/06/03 08:14:43;;;;;;;;;;;;;;;20.78;42.21;102285.28;5033411;28;19917;-71
2023/06/03 08:17:09;;;;;;;;;;;;;;;20.78;41.94;102287.97;5050732;28;19921;-71
2023/06/03 08:19:34;;;;;;;;;;;;;;;20.77;42.25;102283.53;5052748;28;19927;-71
2023/06/03 08:22:00;;;;;;;;;;;;;;;20.77;42.06;102287.09;5020398;28;19917;-70
2023/06/03 08:24:25;;;;;;;;;;;;;;;20.77;42.31;102280.84;5049783;28;20271;-70
2023/06/03 08:26:50;;;;;;;;;;;;;;;20.77;42.16;102278.13;5036906;28;19913;-71
2023/06/03 08:29:16;;;;;;;;;;;;;;;20.77;42.44;102280.84;5040936;28;19917;-71
2023/06/03 08:31:41;;;;;;;;;;;;;;;20.75;42.33;102270.19;5051224;28;20393;-71
2023/06/03 08:34:06;;;;;;;;;;;;;;;20.75;42.41;102281.00;5056475;28;19940;-70
2023/06/03 08:36:31;;;;;;;;;;;;;;;20.75;42.37;102278.28;5048715;28;19917;-70
2023/06/03 08:38:56;;;;;;;;;;;;;;;20.75;42.30;102277.44;5056364;28;19913;-71
2023/06/03 08:41:25;;;;;;;;;;;;;;;20.75;42.23;102275.59;5032778;28;19913;-70
2023/06/03 08:43:51;;;;;;;;;;;;;;;20.76;42.54;102271.03;5046576;28;19925;-71
2023/06/03 08:46:23;;;;;;;;;;;;;;;20.76;42.38;102273.72;5038437;28;19912;-70
2023/06/03 08:48:51;;;;;;;;;;;;;;;20.74;42.38;102273.88;5043936;28;19940;-70
2023/06/03 08:51:16;;;;;;;;;;;;;;;20.75;42.26;102274.75;5044225;28;19916;-70
2023/06/03 08:53:49;;;;;;;;;;;;;;;20.75;42.42;102269.34;5022718;28;19916;-70
2023/06/03 08:56:19;;;;;;;;;;;;;;;20.75;42.52;102256.66;5037695;28;19919;-70
2023/06/03 08:59:04;;;;;;;;;;;;;;;20.77;42.46;102270.03;5050182;28;19916;-71
2023/06/03 09:01:32;;;;;;;;;;;;;;;20.78;42.40;102274.47;5056601;28;19913;-71
2023/06/03 09:03:58;;;;;;;;;;;;;;;20.77;42.26;102264.63;5051183;28;19963;-70
2023/06/03 09:06:23;;;;;;;;;;;;;;;20.78;42.09;102275.31;5031222;28;19913;-70
2023/06/03 09:08:50;;;;;;;;;;;;;;;20.78;42.20;102272.59;5053434;28;19959;-70
2023/06/03 09:11:15;;;;;;;;;;;;;;;20.79;42.39;102268.03;5042691;28;19967;-71
2023/06/03 09:13:40;;;;;;;;;;;;;;;20.78;42.44;102269.91;5038408;28;19912;-70
2023/06/03 09:16:06;;;;;;;;;;;;;;;20.79;42.44;102274.28;5048724;28;20461;-70
2023/06/03 09:18:31;;;;;;;;;;;;;;;20.80;42.38;102275.13;5024153;28;19936;-70
2023/06/03 09:20:56;;;;;;;;;;;;;;;20.80;42.39;102276.00;5035223;28;19917;-70
2023/06/03 09:23:21;;;;;;;;;;;;;;;20.81;42.38;102282.25;5054343;28;19913;-70
2023/06/03 09:25:46;;;;;;;;;;;;;;;20.81;42.22;102276.84;5034461;28;19917;-70
2023/06/03 09:28:12;;;;;;;;;;;;;;;20.82;42.29;102281.28;5039478;28;19981;-70
2023/06/03 09:30:37;;;;;;;;;;;;;;;20.82;42.43;102262.34;5052841;28;19920;-70
2023/06/03 09:33:02;;;;;;;;;;;;;;;20.83;42.36;102277.56;5048432;28;19921;-70
2023/06/03 09:35:27;;;;;;;;;;;;;;;20.83;42.35;102270.28;5055613;28;19913;-70
2023/06/03 09:38:00;;;;;;;;;;;;;;;20.84;42.40;102268.44;5047418;28;19951;-69
2023/06/03 09:40:29;;;;;;;;;;;;;;;20.85;42.34;102267.44;5040047;28;19921;-70
2023/06/03 09:42:55;;;;;;;;;;;;;;;20.85;42.34;102270.97;5040630;28;19912;-71
2023/06/03 09:45:31;;;;;;;;;;;;;;;20.85;42.50;102252.06;5038743;28;20021;-70
2023/06/03 09:47:56;;;;;;;;;;;;;;;20.86;42.57;102270.00;5035056;28;19917;-70
2023/06/03 09:50:22;;;;;;;;;;;;;;;20.86;42.27;102267.31;5025679;28;20329;-70
2023/06/03 09:52:47;;;;;;;;;;;;;;;20.87;42.46;102274.41;5046764;28;19961;-69
2023/06/03 09:55:13;;;;;;;;;;;;;;;20.88;42.52;102262.59;5057789;28;19913;-70
2023/06/03 09:57:38;;;;;;;;;;;;;;;20.89;42.59;102258.03;5027673;28;19945;-71
2023/06/03 10:00:09;;;;;;;;;;;;;;;20.90;42.42;102257.06;5057574;28;19920;-71
2023/06/03 10:02:38;;;;;;;;;;;;;;;20.90;42.50;102260.59;5046033;28;19971;-70
2023/06/03 10:05:03;;;;;;;;;;;;;;;20.91;42.62;102266.84;5033719;28;19967;-71
2023/06/03 10:07:28;;;;;;;;;;;;;;;20.91;42.36;102250.63;5047383;28;19916;-70
2023/06/03 10:10:03;;;;;;;;;;;;;;;20.92;42.45;102250.47;5043147;28;20378;-70
2023/06/03 10:12:29;;;;;;;;;;;;;;;20.92;42.71;102258.59;5037459;28;19956;-71
2023/06/03 10:14:55;;;;;;;;;;;;;;;20.94;42.61;102250.31;5051201;28;19913;-71
2023/06/03 10:17:20;;;;;;;;;;;;;;;20.95;42.73;102254.75;5028304;28;19925;-71
2023/06/03 10:19:46;;;;;;;;;;;;;;;20.94;42.68;102253.91;5030676;28;19913;-71
2023/06/03 10:22:12;;;;;;;;;;;;;;;20.96;42.69;102259.16;5032977;28;20040;-71
2023/06/03 10:24:38;;;;;;;;;;;;;;;20.96;42.75;102251.88;5032781;28;19932;-71
2023/06/03 10:27:04;;;;;;;;;;;;;;;20.97;42.73;102258.97;5040034;28;19918;-71
2023/06/03 10:29:30;;;;;;;;;;;;;;;20.98;42.51;102254.41;5037353;28;19919;-71
2023/06/03 10:31:56;;;;;;;;;;;;;;;20.99;42.85;102256.16;5033445;28;19945;-71
2023/06/03 10:34:21;;;;;;;;;;;;;;;21.02;42.57;102258.53;5032988;28;19928;-71
2023/06/03 10:36:51;;;;;;;;;;;;;;;21.03;42.60;102245.88;5031085;28;19914;-71
2023/06/03 10:39:16;;;;;;;;;;;;;;;21.04;42.88;102256.53;5031639;28;19917;-71
2023/06/03 10:41:41;;;;;;;;;;;;;;;21.05;42.90;102260.09;5033444;28;20390;-71
2023/06/03 10:44:06;;;;;;;;;;;;;;;21.06;42.99;102251.81;5032229;28;20438;-71
2023/06/03 10:46:32;;;;;;;;;;;;;;;21.08;42.74;102267.91;5029896;28;19914;-71
2023/06/03 10:48:57;;;;;;;;;;;;;;;21.10;42.88;102257.78;5030199;28;19921;-71
2023/06/03 10:51:29;;;;;;;;;;;;;;;21.11;42.77;102254.94;5032544;28;19920;-71
2023/06/03 10:54:23;;;;;;;;;;;;;;;21.13;42.92;102255.63;5034286;28;19959;-71
2023/06/03 10:57:08;;;;;;;;;;;;;;;21.15;42.65;102252.78;5036500;28;19933;-70
2023/06/03 10:59:41;;;;;;;;;;;;;;;21.17;42.83;102246.22;5031826;28;19985;-71
2023/06/03 11:02:06;;;;;;;;;;;;;;;21.19;42.92;102246.91;5036532;28;19925;-70
2023/06/03 11:04:33;;;;;;;;;;;;;;;21.20;43.12;102248.63;5029743;28;19928;-70
2023/06/03 11:07:00;;;;;;;;;;;;;;;21.21;42.75;102253.03;5032322;28;19920;-70
2023/06/03 11:09:31;;;;;;;;;;;;;;;21.23;42.92;102251.00;5031132;28;19914;-70
2023/06/03 11:12:05;;;;;;;;;;;;;;;21.25;43.07;102250.88;5047087;28;19918;-70
2023/06/03 11:14:30;;;;;;;;;;;;;;;21.27;43.06;102251.56;5031908;28;19924;-71
2023/06/03 11:16:58;;;;;;;;;;;;;;;21.29;42.88;102251.44;5036298;28;19921;-71
2023/06/03 11:19:30;;;;;;;;;;;;;;;21.30;42.75;102248.56;5049256;28;19913;-71
2023/06/03 11:21:55;;;;;;;;;;;;;;;21.32;43.13;102243.88;5053995;28;19976;-71
2023/06/03 11:24:39;;;;;;;;;;;;;;;21.34;43.02;102239.16;5037421;28;19920;-71
2023/06/03 11:27:13;;;;;;;;;;;;;;;21.37;43.14;102240.75;5053329;28;19917;-71
2023/06/03 11:29:48;;;;;;;;;;;;;;;21.37;43.13;102241.59;5056394;28;20004;-70
2023/06/03 11:32:20;;;;;;;;;;;;;;;21.39;42.92;102244.97;5051475;28;19928;-70
2023/06/03 11:34:49;;;;;;;;;;;;;;;21.41;42.77;102245.69;5033359;28;19944;-71
2023/06/03 11:37:15;;;;;;;;;;;;;;;21.42;43.00;102239.25;5031420;28;20008;-71
2023/06/03 11:40:00;;;;;;;;;;;;;;;21.44;43.04;102253.47;5033101;28;19923;-71
2023/06/03 11:42:26;;;;;;;;;;;;;;;21.46;43.04;102245.22;5050107;28;20366;-71
2023/06/03 11:44:51;;;;;;;;;;;;;;;21.48;43.13;102253.19;5052872;28;19913;-71
2023/06/03 11:47:16;;;;;;;;;;;;;;;21.48;43.20;102251.31;5050365;28;19921;-71
2023/06/03 11:49:41;;;;;;;;;;;;;;;21.51;43.16;102256.44;5052045;28;20286;-71
2023/06/03 11:52:07;;;;;;;;;;;;;;;21.53;42.90;102245.44;5052252;28;19925;-71
2023/06/03 11:54:33;;;;;;;;;;;;;;;21.54;43.13;102247.16;5053293;28;19957;-71
2023/06/03 11:56:59;;;;;;;;;;;;;;;21.57;42.97;102246.84;5044762;28;20300;-71
2023/06/03 11:59:31;;;;;;;;;;;;;;;21.58;43.18;102240.41;5049695;28;19913;-71
2023/06/03 12:02:00;;;;;;;;;;;;;;;21.59;43.22;102234.88;5055659;28;19917;-71
2023/06/03 12:04:25;;;;;;;;;;;;;;;21.61;43.20;102242.81;5031238;28;19913;-71
2023/06/03 12:06:50;;;;;;;;;;;;;;;21.62;43.23;102245.41;5045820;28;20404;-71
2023/06/03 12:09:18;;;;;;;;;;;;;;;21.64;43.01;102235.25;5051551;28;19913;-71
2023/06/03 12:11:44;;;;;;;;;;;;;;;21.66;43.32;102245.91;5051039;28;19952;-71
2023/06/03 12:14:10;;;;;;;;;;;;;;;21.67;43.25;102243.06;5035435;28;19924;-71
2023/06/03 12:16:35;;;;;;;;;;;;;;;21.71;43.03;102246.31;5049159;28;19920;-71
2023/06/03 12:19:03;;;;;;;;;;;;;;;21.71;43.09;102239.03;5052568;28;19927;-71
2023/06/03 12:21:28;;;;;;;;;;;;;;;21.73;43.05;102236.19;5047385;28;19924;-71
2023/06/03 12:23:54;;;;;;;;;;;;;;;21.74;43.14;102227.03;5039680;28;19995;-71
2023/06/03 12:26:19;;;;;;;;;;;;;;;21.77;42.95;102228.59;5048845;28;19920;-71
2023/06/03 12:28:46;;;;;;;;;;;;;;;21.78;43.02;102231.13;5052927;28;19913;-71
2023/06/03 12:31:14;;;;;;;;;;;;;;;21.79;43.25;102219.31;5051229;28;20374;-71